Home > Products > Valid Products > TAF

000
FTUS41 KRNK 212055 AAA
TAFROA
TAF AMD
KROA 212055Z 2121/2218 30010G20KT P6SM VCSH SCT030 BKN080
      TEMPO 2121/2123 5SM -SHRA BKN030
     FM220200 29010G20KT P6SM BKN040 OVC090
     FM221400 32015G25KT P6SM BKN050 OVC120=



000
FTUS41 KRNK 212054 AAA
TAFLWB
TAF AMD
KLWB 212054Z 2121/2218 29008KT P6SM VCSH SCT025 BKN035 OVC050
      TEMPO 2121/2124 -SHRA BKN025
     FM220000 29008KT P6SM -SHRA OVC017
     FM221500 32010G18KT P6SM SCT019 OVC030=



000
FTUS41 KRNK 212053 AAA
TAFBLF
TAF AMD
KBLF 212053Z 2121/2218 28010G18KT P6SM VCSH SCT025 BKN035 OVC060
      TEMPO 2121/2123 -SHRA BKN025
     FM220200 30008G16KT P6SM -SHRA SCT007 OVC015=



000
FTUS41 KRNK 211729
TAFROA
TAF
KROA 211729Z 2118/2218 26008G16KT P6SM BKN045 BKN100
      TEMPO 2118/2122 -SHRA
     FM220200 29010G20KT P6SM BKN040 OVC090
     FM221400 32015G25KT P6SM BKN050 OVC120=



000
FTUS41 KRNK 211729
TAFBLF
TAF
KBLF 211729Z 2118/2218 29012G24KT P6SM SCT014 OVC035
      TEMPO 2118/2121 P6SM -SHRA OVC014
     FM220200 30008G16KT P6SM -SHRA SCT007 OVC015=



000
FTUS41 KRNK 211729
TAFLWB
TAF
KLWB 211729Z 2118/2218 28010KT P6SM -SHRA SCT019 OVC030
     FM220000 29008KT P6SM -SHRA OVC017
     FM221500 32010G18KT P6SM SCT019 OVC030=



000
FTUS41 KRNK 211729
TAFDAN
TAF
KDAN 211729Z 2118/2218 26009KT P6SM BKN060
     FM220000 32007KT P6SM SCT060 BKN100
     FM221300 33012G22KT P6SM BKN045 BKN100=



000
FTUS41 KRNK 211729
TAFLYH
TAF
KLYH 211729Z 2118/2218 26008G16KT P6SM BKN050 BKN110
     FM220200 30007KT P6SM BKN045 OVC090
      TEMPO 2208/2212 6SM -RA OVC040=



000
FTUS41 KRNK 211708 AAA
TAFBLF
TAF AMD
KBLF 211708Z 2117/2212 29012G24KT P6SM SCT014 OVC035
      TEMPO 2117/2121 P6SM -SHRA OVC014
     FM220000 30011G21KT P6SM -SHRA BKN007 OVC015=



000
FTUS41 KRNK 211704 AAC
TAFLWB
TAF AMD
KLWB 211704Z 2117/2212 28010KT P6SM -SHRA SCT019 OVC030
     FM220000 29008G16KT P6SM -SHRA BKN010 OVC017=



000
FTUS41 KRNK 211203 AAB
TAFLWB
TAF AMD
KLWB 211203Z 2112/2212 25005KT P6SM VCSH SCT017 OVC045
      TEMPO 2112/2114 1SM BR BKN002 BKN017
     FM211500 28008G16KT P6SM -SHRA BKN017 OVC027
     FM220000 29008G16KT P6SM -SHRA BKN010 OVC017=



000
FTUS41 KRNK 211203 AAB
TAFLWB
TAF AMD
KLWB 211203Z 2112/2212 25005KT P6SM VCSH SCT017 OVC045
      TEMPO 2112/2114 1SM BR BKN002 BKN017
     FM211500 28008G16KT P6SM -SHRA BKN017 OVC027
     FM220000 29008G16KT P6SM -SHRA BKN010 OVC017=



000
FTUS41 KRNK 211203 AAB
TAFLWB
TAF AMD
KLWB 211203Z 2112/2212 25005KT P6SM VCSH SCT017 OVC045
      TEMPO 2112/2114 1SM BR BKN002 BKN017
     FM211500 28008G16KT P6SM -SHRA BKN017 OVC027
     FM220000 29008G16KT P6SM -SHRA BKN010 OVC017=



000
FTUS41 KRNK 211203 AAB
TAFLWB
TAF AMD
KLWB 211203Z 2112/2212 25005KT P6SM VCSH SCT017 OVC045
      TEMPO 2112/2114 1SM BR BKN002 BKN017
     FM211500 28008G16KT P6SM -SHRA BKN017 OVC027
     FM220000 29008G16KT P6SM -SHRA BKN010 OVC017=



000
FTUS41 KRNK 211202 AAA
TAFLWB
TAF AMD
KLWB 211202Z 2112/2212 25005KT P6SM VCSH SCT017 OVC045
      TEMPO 2112/2114 1SM BR BKN017
     FM211500 28008G16KT P6SM -SHRA BKN017 OVC027
     FM220000 29008G16KT P6SM -SHRA BKN010 OVC017=



000
FTUS41 KRNK 211202 AAA
TAFLWB
TAF AMD
KLWB 211202Z 2112/2212 25005KT P6SM VCSH SCT017 OVC045
      TEMPO 2112/2114 1SM BR BKN017
     FM211500 28008G16KT P6SM -SHRA BKN017 OVC027
     FM220000 29008G16KT P6SM -SHRA BKN010 OVC017=



000
FTUS41 KRNK 211202 AAA
TAFLWB
TAF AMD
KLWB 211202Z 2112/2212 25005KT P6SM VCSH SCT017 OVC045
      TEMPO 2112/2114 1SM BR BKN017
     FM211500 28008G16KT P6SM -SHRA BKN017 OVC027
     FM220000 29008G16KT P6SM -SHRA BKN010 OVC017=



000
FTUS41 KRNK 211202 AAA
TAFLWB
TAF AMD
KLWB 211202Z 2112/2212 25005KT P6SM VCSH SCT017 OVC045
      TEMPO 2112/2114 1SM BR BKN017
     FM211500 28008G16KT P6SM -SHRA BKN017 OVC027
     FM220000 29008G16KT P6SM -SHRA BKN010 OVC017=



000
FTUS41 KRNK 211126
TAFBLF
TAF
KBLF 211126Z 2112/2212 26008KT P6SM VCSH BKN015 OVC045
     FM211500 29014G24KT P6SM -SHRA BKN015 OVC025
     FM220000 30011G21KT P6SM -SHRA BKN007 OVC015=



000
FTUS41 KRNK 211126
TAFDAN
TAF
KDAN 211126Z 2112/2212 25007KT P6SM SCT120
     FM211700 26010G20KT P6SM SCT060 BKN120
     FM220000 28010G20KT P6SM SCT060 BKN110=



000
FTUS41 KRNK 211126
TAFLYH
TAF
KLYH 211126Z 2112/2212 24006KT P6SM SCT050 BKN110
     FM211600 25008G16KT P6SM BKN050 BKN110
     FM220200 30007KT P6SM BKN050 OVC100=



000
FTUS41 KRNK 211126
TAFLWB
TAF
KLWB 211126Z 2112/2212 25005KT P6SM VCSH SCT017 OVC045
      TEMPO 2112/2114 BKN017
     FM211500 28008G16KT P6SM -SHRA BKN017 OVC027
     FM220000 29008G16KT P6SM -SHRA BKN010 OVC017=



000
FTUS41 KRNK 211126
TAFROA
TAF
KROA 211126Z 2112/2212 26007KT P6SM BKN050 BKN100
     FM211500 26012G22KT P6SM BKN045 BKN100
      TEMPO 2118/2122 -SHRA
     FM220200 29011G21KT P6SM -SHRA BKN040 OVC090=



000
FTUS41 KRNK 211126
TAFLYH
TAF
KLYH 211126Z 2112/2212 24006KT P6SM SCT050 BKN110
     FM211600 25008G16KT P6SM BKN050 BKN110
     FM220200 30007KT P6SM BKN050 OVC100=



000
FTUS41 KRNK 211126
TAFBLF
TAF
KBLF 211126Z 2112/2212 26008KT P6SM VCSH BKN015 OVC045
     FM211500 29014G24KT P6SM -SHRA BKN015 OVC025
     FM220000 30011G21KT P6SM -SHRA BKN007 OVC015=



000
FTUS41 KRNK 211126
TAFLWB
TAF
KLWB 211126Z 2112/2212 25005KT P6SM VCSH SCT017 OVC045
      TEMPO 2112/2114 BKN017
     FM211500 28008G16KT P6SM -SHRA BKN017 OVC027
     FM220000 29008G16KT P6SM -SHRA BKN010 OVC017=



000
FTUS41 KRNK 211126
TAFDAN
TAF
KDAN 211126Z 2112/2212 25007KT P6SM SCT120
     FM211700 26010G20KT P6SM SCT060 BKN120
     FM220000 28010G20KT P6SM SCT060 BKN110=



000
FTUS41 KRNK 211126
TAFROA
TAF
KROA 211126Z 2112/2212 26007KT P6SM BKN050 BKN100
     FM211500 26012G22KT P6SM BKN045 BKN100
      TEMPO 2118/2122 -SHRA
     FM220200 29011G21KT P6SM -SHRA BKN040 OVC090=



000
FTUS41 KRNK 211126
TAFLWB
TAF
KLWB 211126Z 2112/2212 25005KT P6SM VCSH SCT017 OVC045
      TEMPO 2112/2114 BKN017
     FM211500 28008G16KT P6SM -SHRA BKN017 OVC027
     FM220000 29008G16KT P6SM -SHRA BKN010 OVC017=



000
FTUS41 KRNK 211126
TAFROA
TAF
KROA 211126Z 2112/2212 26007KT P6SM BKN050 BKN100
     FM211500 26012G22KT P6SM BKN045 BKN100
      TEMPO 2118/2122 -SHRA
     FM220200 29011G21KT P6SM -SHRA BKN040 OVC090=



000
FTUS41 KRNK 211126
TAFBLF
TAF
KBLF 211126Z 2112/2212 26008KT P6SM VCSH BKN015 OVC045
     FM211500 29014G24KT P6SM -SHRA BKN015 OVC025
     FM220000 30011G21KT P6SM -SHRA BKN007 OVC015=



000
FTUS41 KRNK 211126
TAFDAN
TAF
KDAN 211126Z 2112/2212 25007KT P6SM SCT120
     FM211700 26010G20KT P6SM SCT060 BKN120
     FM220000 28010G20KT P6SM SCT060 BKN110=



000
FTUS41 KRNK 211126
TAFLYH
TAF
KLYH 211126Z 2112/2212 24006KT P6SM SCT050 BKN110
     FM211600 25008G16KT P6SM BKN050 BKN110
     FM220200 30007KT P6SM BKN050 OVC100=



000
FTUS41 KRNK 211126
TAFLWB
TAF
KLWB 211126Z 2112/2212 25005KT P6SM VCSH SCT017 OVC045
      TEMPO 2112/2114 BKN017
     FM211500 28008G16KT P6SM -SHRA BKN017 OVC027
     FM220000 29008G16KT P6SM -SHRA BKN010 OVC017=



000
FTUS41 KRNK 211126
TAFBLF
TAF
KBLF 211126Z 2112/2212 26008KT P6SM VCSH BKN015 OVC045
     FM211500 29014G24KT P6SM -SHRA BKN015 OVC025
     FM220000 30011G21KT P6SM -SHRA BKN007 OVC015=



000
FTUS41 KRNK 211126
TAFLYH
TAF
KLYH 211126Z 2112/2212 24006KT P6SM SCT050 BKN110
     FM211600 25008G16KT P6SM BKN050 BKN110
     FM220200 30007KT P6SM BKN050 OVC100=



000
FTUS41 KRNK 211126
TAFROA
TAF
KROA 211126Z 2112/2212 26007KT P6SM BKN050 BKN100
     FM211500 26012G22KT P6SM BKN045 BKN100
      TEMPO 2118/2122 -SHRA
     FM220200 29011G21KT P6SM -SHRA BKN040 OVC090=



000
FTUS41 KRNK 211126
TAFDAN
TAF
KDAN 211126Z 2112/2212 25007KT P6SM SCT120
     FM211700 26010G20KT P6SM SCT060 BKN120
     FM220000 28010G20KT P6SM SCT060 BKN110=



000
FTUS41 KRNK 211000 AAD
TAFLWB
TAF AMD
KLWB 211000Z 2110/2206 00000KT P6SM -RA SCT012 BKN035
      TEMPO 2111/2114 1 1/2SM -RA BR OVC012
     FM211500 29008KT P6SM -SHRA OVC020
     FM220200 32004KT P6SM OVC025=



000
FTUS41 KRNK 211000 AAD
TAFLWB
TAF AMD
KLWB 211000Z 2110/2206 00000KT P6SM -RA SCT012 BKN035
      TEMPO 2111/2114 1 1/2SM -RA BR OVC012
     FM211500 29008KT P6SM -SHRA OVC020
     FM220200 32004KT P6SM OVC025=



000
FTUS41 KRNK 211000 AAD
TAFLWB
TAF AMD
KLWB 211000Z 2110/2206 00000KT P6SM -RA SCT012 BKN035
      TEMPO 2111/2114 1 1/2SM -RA BR OVC012
     FM211500 29008KT P6SM -SHRA OVC020
     FM220200 32004KT P6SM OVC025=



000
FTUS41 KRNK 211000 AAD
TAFLWB
TAF AMD
KLWB 211000Z 2110/2206 00000KT P6SM -RA SCT012 BKN035
      TEMPO 2111/2114 1 1/2SM -RA BR OVC012
     FM211500 29008KT P6SM -SHRA OVC020
     FM220200 32004KT P6SM OVC025=



000
FTUS41 KRNK 210932 AAA
TAFBLF
TAF AMD
KBLF 210932Z 2110/2206 26005KT P6SM VCSH SCT012 BKN035
      TEMPO 2111/2113 3SM -RA BR BKN012
     FM211500 30010G18KT P6SM -SHRA OVC015
     FM212000 30009G15KT P6SM OVC035=



000
FTUS41 KRNK 210932 AAA
TAFBLF
TAF AMD
KBLF 210932Z 2110/2206 26005KT P6SM VCSH SCT012 BKN035
      TEMPO 2111/2113 3SM -RA BR BKN012
     FM211500 30010G18KT P6SM -SHRA OVC015
     FM212000 30009G15KT P6SM OVC035=



000
FTUS41 KRNK 210903 AAC
TAFLWB
TAF AMD
KLWB 210903Z 2109/2206 00000KT 6SM -RA BR SCT002 BKN026
      TEMPO 2110/2113 1/4SM FG OVC002
     FM211500 29008KT P6SM -SHRA OVC020
     FM220200 32004KT P6SM OVC025=



000
FTUS41 KRNK 210903 AAC
TAFLWB
TAF AMD
KLWB 210903Z 2109/2206 00000KT 6SM -RA BR SCT002 BKN026
      TEMPO 2110/2113 1/4SM FG OVC002
     FM211500 29008KT P6SM -SHRA OVC020
     FM220200 32004KT P6SM OVC025=



000
FTUS41 KRNK 210746 AAB
TAFLWB
TAF AMD
KLWB 210746Z 2108/2206 00000KT P6SM -RA SCT026 OVC050
     FM210900 00000KT 1SM -RA BR SCT002 BKN026
      TEMPO 2109/2113 1/4SM FG OVC002
     FM211500 29008KT P6SM -SHRA OVC020
     FM220200 32004KT P6SM OVC025=



000
FTUS41 KRNK 210746 AAB
TAFLWB
TAF AMD
KLWB 210746Z 2108/2206 00000KT P6SM -RA SCT026 OVC050
     FM210900 00000KT 1SM -RA BR SCT002 BKN026
      TEMPO 2109/2113 1/4SM FG OVC002
     FM211500 29008KT P6SM -SHRA OVC020
     FM220200 32004KT P6SM OVC025=



000
FTUS41 KRNK 210730 AAA
TAFROA
TAF AMD
KROA 210730Z 2108/2206 28010KT P6SM VCSH BKN050
     FM211500 30012G20KT P6SM BKN035
     FM220200 31010KT P6SM BKN050=



000
FTUS41 KRNK 210645 AAA
TAFLWB
TAF AMD
KLWB 210645Z 2107/2206 00000KT 1SM -RA BR SCT002 BKN026
      TEMPO 2109/2113 1/4SM FG OVC002
     FM211500 29008KT P6SM -SHRA OVC020
     FM220200 32004KT P6SM OVC025=



000
FTUS41 KRNK 210645 AAA
TAFLWB
TAF AMD
KLWB 210645Z 2107/2206 00000KT 1SM -RA BR SCT002 BKN026
      TEMPO 2109/2113 1/4SM FG OVC002
     FM211500 29008KT P6SM -SHRA OVC020
     FM220200 32004KT P6SM OVC025=



000
FTUS41 KRNK 210524 CCA
TAFBLF
TAF COR
KBLF 210524Z 2106/2206 25008KT P6SM -RA OVC029
     FM210800 27005KT P6SM VCSH SCT012 BKN018
      TEMPO 2109/2112 3SM BR BKN012
     FM211500 30010G18KT P6SM -SHRA OVC015
     FM212000 30009G15KT P6SM OVC035=



000
FTUS41 KRNK 210524 CCA
TAFBLF
TAF COR
KBLF 210524Z 2106/2206 25008KT P6SM -RA OVC029
     FM210800 27005KT P6SM VCSH SCT012 BKN018
      TEMPO 2109/2112 3SM BR BKN012
     FM211500 30010G18KT P6SM -SHRA OVC015
     FM212000 30009G15KT P6SM OVC035=



000
FTUS41 KRNK 210522
TAFLYH
TAF
KLYH 210522Z 2106/2206 VRB03KT P6SM SCT060 BKN120
     FM211500 27008KT P6SM BKN060
     FM211800 30010KT P6SM BKN050
     FM212100 30005KT P6SM BKN100=



000
FTUS41 KRNK 210522
TAFDAN
TAF
KDAN 210522Z 2106/2206 24003KT P6SM BKN100
     FM211500 27008KT P6SM SCT050
     FM211800 30010G18KT P6SM BKN050
     FM220100 30008KT P6SM BKN250=



000
FTUS41 KRNK 210522
TAFLYH
TAF
KLYH 210522Z 2106/2206 VRB03KT P6SM SCT060 BKN120
     FM211500 27008KT P6SM BKN060
     FM211800 30010KT P6SM BKN050
     FM212100 30005KT P6SM BKN100=



000
FTUS41 KRNK 210522
TAFLWB
TAF
KLWB 210522Z 2106/2206 VRB03KT P6SM VCSH BKN025
      TEMPO 2109/2113 3/4SM BR OVC002
     FM211500 29008KT P6SM -SHRA OVC020
     FM220200 32004KT P6SM OVC025=



000
FTUS41 KRNK 210522
TAFBLF
TAF
KBLF 210522Z 2106/2206 25008KT P6SM -RA OVC035
     FM210800 27005KT P6SM VCSH SCT012 BKN018
      TEMPO 2109/2112 3SM BR BKN012
     FM211500 30010G18KT P6SM -SHRA OVC015
     FM212000 30009G15KT P6SM OVC035=



000
FTUS41 KRNK 210522
TAFROA
TAF
KROA 210522Z 2106/2206 25003KT P6SM BKN050
     FM211500 30012G20KT P6SM BKN035
     FM220200 31010KT P6SM BKN050=



000
FTUS41 KRNK 210522
TAFROA
TAF
KROA 210522Z 2106/2206 25003KT P6SM BKN050
     FM211500 30012G20KT P6SM BKN035
     FM220200 31010KT P6SM BKN050=



000
FTUS41 KRNK 210522
TAFBLF
TAF
KBLF 210522Z 2106/2206 25008KT P6SM -RA OVC035
     FM210800 27005KT P6SM VCSH SCT012 BKN018
      TEMPO 2109/2112 3SM BR BKN012
     FM211500 30010G18KT P6SM -SHRA OVC015
     FM212000 30009G15KT P6SM OVC035=



000
FTUS41 KRNK 210522
TAFLWB
TAF
KLWB 210522Z 2106/2206 VRB03KT P6SM VCSH BKN025
      TEMPO 2109/2113 3/4SM BR OVC002
     FM211500 29008KT P6SM -SHRA OVC020
     FM220200 32004KT P6SM OVC025=



000
FTUS41 KRNK 210522
TAFDAN
TAF
KDAN 210522Z 2106/2206 24003KT P6SM BKN100
     FM211500 27008KT P6SM SCT050
     FM211800 30010G18KT P6SM BKN050
     FM220100 30008KT P6SM BKN250=



000
FTUS41 KRNK 210442 AAB
TAFBLF
TAF AMD
KBLF 210442Z 2105/2124 25008KT P6SM -RA OVC060
     FM210600 27005KT P6SM VCSH SCT012 BKN018
      TEMPO 2109/2112 3SM BR BKN012
     FM211500 30010G18KT P6SM -SHRA OVC015=



000
FTUS41 KRNK 210442 AAB
TAFBLF
TAF AMD
KBLF 210442Z 2105/2124 25008KT P6SM -RA OVC060
     FM210600 27005KT P6SM VCSH SCT012 BKN018
      TEMPO 2109/2112 3SM BR BKN012
     FM211500 30010G18KT P6SM -SHRA OVC015=



000
FTUS41 KRNK 210302 AAA
TAFBLF
TAF AMD
KBLF 210302Z 2103/2124 25010G20KT P6SM -RA OVC060
     FM210400 27005KT P6SM VCSH SCT012 BKN018
      TEMPO 2109/2112 3SM BR BKN012
     FM211500 30010G18KT P6SM -SHRA OVC015=



000
FTUS41 KRNK 210302 AAA
TAFBLF
TAF AMD
KBLF 210302Z 2103/2124 25010G20KT P6SM -RA OVC060
     FM210400 27005KT P6SM VCSH SCT012 BKN018
      TEMPO 2109/2112 3SM BR BKN012
     FM211500 30010G18KT P6SM -SHRA OVC015=



000
FTUS41 KRNK 210302 AAA
TAFBLF
TAF AMD
KBLF 210302Z 2103/2124 25010G20KT P6SM -RA OVC060
     FM210400 27005KT P6SM VCSH SCT012 BKN018
      TEMPO 2109/2112 3SM BR BKN012
     FM211500 30010G18KT P6SM -SHRA OVC015=



000
FTUS41 KRNK 210302 AAA
TAFBLF
TAF AMD
KBLF 210302Z 2103/2124 25010G20KT P6SM -RA OVC060
     FM210400 27005KT P6SM VCSH SCT012 BKN018
      TEMPO 2109/2112 3SM BR BKN012
     FM211500 30010G18KT P6SM -SHRA OVC015=



000
FTUS41 KRNK 202330
TAFLWB
TAF
KLWB 202330Z 2100/2124 22005KT P6SM SCT060 OVC080
     FM210500 VRB03KT P6SM VCSH BKN025
      TEMPO 2109/2113 3/4SM BR OVC002
     FM211500 29008KT P6SM -SHRA OVC020=



000
FTUS41 KRNK 202330
TAFLWB
TAF
KLWB 202330Z 2100/2124 22005KT P6SM SCT060 OVC080
     FM210500 VRB03KT P6SM VCSH BKN025
      TEMPO 2109/2113 3/4SM BR OVC002
     FM211500 29008KT P6SM -SHRA OVC020=



000
FTUS41 KRNK 202330
TAFROA
TAF
KROA 202330Z 2100/2124 24005KT P6SM SCT045 OVC100
     FM210400 25003KT P6SM BKN050
     FM211500 30012G20KT P6SM BKN035=



000
FTUS41 KRNK 202330
TAFBLF
TAF
KBLF 202330Z 2100/2124 25007KT P6SM SCT050 OVC080
     FM210400 27005KT P6SM VCSH SCT012 BKN018
      TEMPO 2109/2112 3SM BR BKN012
     FM211500 30010G18KT P6SM -SHRA OVC015=



000
FTUS41 KRNK 202330
TAFDAN
TAF
KDAN 202330Z 2100/2124 21004KT P6SM OVC120
     FM210400 24003KT P6SM SCT080
     FM211500 30010KT P6SM SCT050=



000
FTUS41 KRNK 202330
TAFDAN
TAF
KDAN 202330Z 2100/2124 21004KT P6SM OVC120
     FM210400 24003KT P6SM SCT080
     FM211500 30010KT P6SM SCT050=



000
FTUS41 KRNK 202330
TAFROA
TAF
KROA 202330Z 2100/2124 24005KT P6SM SCT045 OVC100
     FM210400 25003KT P6SM BKN050
     FM211500 30012G20KT P6SM BKN035=



000
FTUS41 KRNK 202330
TAFLYH
TAF
KLYH 202330Z 2100/2124 20004KT P6SM SCT050 OVC120
      TEMPO 2100/2101 -SHRA SCT040 OVC080
     FM210200 VRB03KT P6SM SCT060
     FM211500 30010KT P6SM BKN050=



000
FTUS41 KRNK 202330
TAFLYH
TAF
KLYH 202330Z 2100/2124 20004KT P6SM SCT050 OVC120
      TEMPO 2100/2101 -SHRA SCT040 OVC080
     FM210200 VRB03KT P6SM SCT060
     FM211500 30010KT P6SM BKN050=



000
FTUS41 KRNK 202330
TAFBLF
TAF
KBLF 202330Z 2100/2124 25007KT P6SM SCT050 OVC080
     FM210400 27005KT P6SM VCSH SCT012 BKN018
      TEMPO 2109/2112 3SM BR BKN012
     FM211500 30010G18KT P6SM -SHRA OVC015=



000
FTUS41 KRNK 202122 AAB
TAFROA
TAF AMD
KROA 202122Z 2021/2118 20005KT P6SM SCT050 OVC120
      TEMPO 2022/2024 -RA SCT040 OVC080
     FM210200 VRB04KT P6SM BKN040
     FM211500 30010G18KT P6SM VCSH BKN035=



000
FTUS41 KRNK 202122 AAB
TAFROA
TAF AMD
KROA 202122Z 2021/2118 20005KT P6SM SCT050 OVC120
      TEMPO 2022/2024 -RA SCT040 OVC080
     FM210200 VRB04KT P6SM BKN040
     FM211500 30010G18KT P6SM VCSH BKN035=



000
FTUS41 KRNK 202104 AAA
TAFDAN
TAF AMD
KDAN 202104Z 2021/2118 20008KT P6SM SCT150
     FM210000 22004KT P6SM OVC100
     FM210400 VRB04KT P6SM SCT060
     FM211500 30010KT P6SM BKN050=



000
FTUS41 KRNK 202011 AAB
TAFLWB
TAF AMD
KLWB 202011Z 2020/2118 24006KT P6SM OVC120
     FM202100 22005KT P6SM SCT050 OVC080
      TEMPO 2021/2023 6SM -SHRA SCT035 OVC050
     FM210400 VRB03KT P6SM VCSH BKN015
     FM211500 29008KT P6SM VCSH BKN020=



000
FTUS41 KRNK 202009 AAA
TAFROA
TAF AMD
KROA 202009Z 2020/2118 19008KT P6SM SCT060 SCT250
     FM202100 20010KT P6SM SCT050 OVC120
      TEMPO 2023/2101 5SM -SHRA SCT040 OVC080
     FM210400 VRB04KT P6SM BKN040
     FM211500 30010G18KT P6SM VCSH BKN035=



000
FTUS41 KRNK 202009 AAA
TAFROA
TAF AMD
KROA 202009Z 2020/2118 19008KT P6SM SCT060 SCT250
     FM202100 20010KT P6SM SCT050 OVC120
      TEMPO 2023/2101 5SM -SHRA SCT040 OVC080
     FM210400 VRB04KT P6SM BKN040
     FM211500 30010G18KT P6SM VCSH BKN035=



000
FTUS41 KRNK 202008 AAA
TAFLYH
TAF AMD
KLYH 202008Z 2020/2118 20010KT P6SM SCT060 SCT120
     FM202200 20010KT P6SM SCT050 OVC100
      TEMPO 2100/2102 -SHRA SCT040 OVC080
     FM210400 VRB04KT P6SM SCT060
     FM211500 30010KT P6SM BKN050=



000
FTUS41 KRNK 202008 AAA
TAFLYH
TAF AMD
KLYH 202008Z 2020/2118 20010KT P6SM SCT060 SCT120
     FM202200 20010KT P6SM SCT050 OVC100
      TEMPO 2100/2102 -SHRA SCT040 OVC080
     FM210400 VRB04KT P6SM SCT060
     FM211500 30010KT P6SM BKN050=



000
FTUS41 KRNK 202007 AAB
TAFBLF
TAF AMD
KBLF 202007Z 2020/2118 28009KT P6SM -SHRA SCT060 OVC120
      TEMPO 2020/2022 5SM -RA SCT035 OVC060
     FM202200 26007KT P6SM SCT050 OVC080
     FM210400 27005KT P6SM VCSH SCT007 BKN015
      TEMPO 2109/2112 3SM BR BKN007
     FM211500 29008G16KT P6SM VCSH BKN012=



000
FTUS41 KRNK 202007 AAB
TAFBLF
TAF AMD
KBLF 202007Z 2020/2118 28009KT P6SM -SHRA SCT060 OVC120
      TEMPO 2020/2022 5SM -RA SCT035 OVC060
     FM202200 26007KT P6SM SCT050 OVC080
     FM210400 27005KT P6SM VCSH SCT007 BKN015
      TEMPO 2109/2112 3SM BR BKN007
     FM211500 29008G16KT P6SM VCSH BKN012=



000
FTUS41 KRNK 201931 AAA
TAFBLF
TAF AMD
KBLF 201931Z 2020/2118 25008G16KT P6SM SCT060 SCT100
      TEMPO 2020/2022 5SM -SHRA SCT035 OVC060
     FM202200 22010KT P6SM SCT050 OVC080
     FM210400 27005KT P6SM VCSH SCT007 BKN015
      TEMPO 2109/2112 3SM BR BKN007
     FM211500 29008G16KT P6SM VCSH BKN012=



000
FTUS41 KRNK 201931 AAA
TAFBLF
TAF AMD
KBLF 201931Z 2020/2118 25008G16KT P6SM SCT060 SCT100
      TEMPO 2020/2022 5SM -SHRA SCT035 OVC060
     FM202200 22010KT P6SM SCT050 OVC080
     FM210400 27005KT P6SM VCSH SCT007 BKN015
      TEMPO 2109/2112 3SM BR BKN007
     FM211500 29008G16KT P6SM VCSH BKN012=



000
FTUS41 KRNK 201902 AAA
TAFLWB
TAF AMD
KLWB 201902Z 2019/2118 24007KT P6SM OVC120
     FM202100 22005KT P6SM SCT050 OVC080
      TEMPO 2021/2023 5SM -SHRA SCT035 OVC050
     FM210400 VRB03KT P6SM VCSH BKN015
     FM211500 29008KT P6SM VCSH BKN020=



000
FTUS41 KRNK 201902 AAA
TAFLWB
TAF AMD
KLWB 201902Z 2019/2118 24007KT P6SM OVC120
     FM202100 22005KT P6SM SCT050 OVC080
      TEMPO 2021/2023 5SM -SHRA SCT035 OVC050
     FM210400 VRB03KT P6SM VCSH BKN015
     FM211500 29008KT P6SM VCSH BKN020=



000
FTUS41 KRNK 201731
TAFBLF
TAF
KBLF 201731Z 2018/2118 25008G16KT P6SM SCT060 SCT100
     FM202100 22010KT P6SM SCT050 OVC080
      TEMPO 2021/2023 5SM -SHRA SCT035 OVC050
     FM210400 27005KT P6SM VCSH SCT007 BKN015
      TEMPO 2109/2112 3SM BR BKN007
     FM211500 29008G16KT P6SM VCSH BKN012=



000
FTUS41 KRNK 201731
TAFDAN
TAF
KDAN 201731Z 2018/2118 23008G16KT P6SM SCT060 SCT120
     FM202200 20010KT P6SM SCT050 OVC100
      TEMPO 2100/2102 -SHRA SCT040 OVC080
     FM210400 VRB04KT P6SM SCT060
     FM211500 30010KT P6SM BKN050=



000
FTUS41 KRNK 201731
TAFDAN
TAF
KDAN 201731Z 2018/2118 23008G16KT P6SM SCT060 SCT120
     FM202200 20010KT P6SM SCT050 OVC100
      TEMPO 2100/2102 -SHRA SCT040 OVC080
     FM210400 VRB04KT P6SM SCT060
     FM211500 30010KT P6SM BKN050=



000
FTUS41 KRNK 201731
TAFROA
TAF
KROA 201731Z 2018/2118 14005KT P6SM FEW060 BKN250
     FM202000 22008G16KT P6SM SCT060 SCT120
     FM202200 20010KT P6SM SCT050 OVC100
      TEMPO 2023/2101 5SM -SHRA SCT040 OVC080
     FM210400 VRB04KT P6SM BKN040
     FM211500 30010G18KT P6SM VCSH BKN035=



000
FTUS41 KRNK 201731
TAFLWB
TAF
KLWB 201731Z 2018/2118 25008G16KT P6SM SCT060 SCT100
     FM202100 22010KT P6SM SCT050 OVC080
      TEMPO 2021/2023 5SM -SHRA SCT035 OVC050
     FM210400 VRB03KT P6SM VCSH BKN015
     FM211500 29008KT P6SM VCSH BKN020=



000
FTUS41 KRNK 201731
TAFLYH
TAF
KLYH 201731Z 2018/2118 22008G16KT P6SM SCT060 SCT120
     FM202200 20010KT P6SM SCT050 OVC100
      TEMPO 2100/2102 -SHRA SCT040 OVC080
     FM210400 VRB04KT P6SM SCT060
     FM211500 30010KT P6SM BKN050=



000
FTUS41 KRNK 201731
TAFBLF
TAF
KBLF 201731Z 2018/2118 25008G16KT P6SM SCT060 SCT100
     FM202100 22010KT P6SM SCT050 OVC080
      TEMPO 2021/2023 5SM -SHRA SCT035 OVC050
     FM210400 27005KT P6SM VCSH SCT007 BKN015
      TEMPO 2109/2112 3SM BR BKN007
     FM211500 29008G16KT P6SM VCSH BKN012=



000
FTUS41 KRNK 201731
TAFROA
TAF
KROA 201731Z 2018/2118 14005KT P6SM FEW060 BKN250
     FM202000 22008G16KT P6SM SCT060 SCT120
     FM202200 20010KT P6SM SCT050 OVC100
      TEMPO 2023/2101 5SM -SHRA SCT040 OVC080
     FM210400 VRB04KT P6SM BKN040
     FM211500 30010G18KT P6SM VCSH BKN035=



000
FTUS41 KRNK 201731
TAFLYH
TAF
KLYH 201731Z 2018/2118 22008G16KT P6SM SCT060 SCT120
     FM202200 20010KT P6SM SCT050 OVC100
      TEMPO 2100/2102 -SHRA SCT040 OVC080
     FM210400 VRB04KT P6SM SCT060
     FM211500 30010KT P6SM BKN050=



000
FTUS41 KRNK 201731
TAFLWB
TAF
KLWB 201731Z 2018/2118 25008G16KT P6SM SCT060 SCT100
     FM202100 22010KT P6SM SCT050 OVC080
      TEMPO 2021/2023 5SM -SHRA SCT035 OVC050
     FM210400 VRB03KT P6SM VCSH BKN015
     FM211500 29008KT P6SM VCSH BKN020=



000
FTUS41 KRNK 201123
TAFROA
TAF
KROA 201123Z 2012/2112 VRB03KT P6SM SCT250
     FM201400 22008G16KT P6SM BKN250
     FM202200 22006KT P6SM BKN100 OVC250
     FM210400 24006KT P6SM BKN050 OVC100=



000
FTUS41 KRNK 201123
TAFLYH
TAF
KLYH 201123Z 2012/2112 00000KT P6SM SCT250
      TEMPO 2012/2013 5SM BR
     FM201400 21006KT P6SM BKN250
     FM202300 17004KT P6SM BKN110 OVC250
     FM210500 23004KT P6SM BKN060 OVC110=



000
FTUS41 KRNK 201123
TAFDAN
TAF
KDAN 201123Z 2012/2112 00000KT P6SM SCT250
     FM201400 22007KT P6SM SCT250
     FM210400 19004KT P6SM SCT120 BKN250=



000
FTUS41 KRNK 201123
TAFLWB
TAF
KLWB 201123Z 2012/2112 00000KT P6SM BKN250
     FM201400 23005KT P6SM BKN200
     FM201900 23006KT P6SM BKN100 OVC200
     FM202200 24005KT P6SM -SHRA BKN050 OVC100
     FM210500 27004KT P6SM -SHRA BKN020 OVC035=



000
FTUS41 KRNK 201123
TAFBLF
TAF
KBLF 201123Z 2012/2112 23006KT P6SM BKN250
     FM201400 24010G18KT P6SM BKN200
     FM202000 23007KT P6SM BKN100 OVC200
     FM202300 25006KT P6SM -SHRA BKN050 OVC090
     FM210600 27006KT P6SM -SHRA BKN015 OVC035=



000
FTUS41 KRNK 201123
TAFROA
TAF
KROA 201123Z 2012/2112 VRB03KT P6SM SCT250
     FM201400 22008G16KT P6SM BKN250
     FM202200 22006KT P6SM BKN100 OVC250
     FM210400 24006KT P6SM BKN050 OVC100=



000
FTUS41 KRNK 201123
TAFBLF
TAF
KBLF 201123Z 2012/2112 23006KT P6SM BKN250
     FM201400 24010G18KT P6SM BKN200
     FM202000 23007KT P6SM BKN100 OVC200
     FM202300 25006KT P6SM -SHRA BKN050 OVC090
     FM210600 27006KT P6SM -SHRA BKN015 OVC035=



000
FTUS41 KRNK 201123
TAFDAN
TAF
KDAN 201123Z 2012/2112 00000KT P6SM SCT250
     FM201400 22007KT P6SM SCT250
     FM210400 19004KT P6SM SCT120 BKN250=



000
FTUS41 KRNK 201123
TAFLWB
TAF
KLWB 201123Z 2012/2112 00000KT P6SM BKN250
     FM201400 23005KT P6SM BKN200
     FM201900 23006KT P6SM BKN100 OVC200
     FM202200 24005KT P6SM -SHRA BKN050 OVC100
     FM210500 27004KT P6SM -SHRA BKN020 OVC035=



000
FTUS41 KRNK 201123
TAFLYH
TAF
KLYH 201123Z 2012/2112 00000KT P6SM SCT250
      TEMPO 2012/2013 5SM BR
     FM201400 21006KT P6SM BKN250
     FM202300 17004KT P6SM BKN110 OVC250
     FM210500 23004KT P6SM BKN060 OVC110=



000
FTUS41 KRNK 200523
TAFLWB
TAF
KLWB 200523Z 2006/2106 00000KT P6SM SCT250
     FM201600 24006KT P6SM SCT050 BKN150
     FM202200 VRB03KT P6SM BKN070
     FM210200 00000KT P6SM OVC050=



000
FTUS41 KRNK 200523
TAFBLF
TAF
KBLF 200523Z 2006/2106 21003KT P6SM SCT200
     FM201400 23008G14KT P6SM SCT050 BKN150
     FM202300 25006KT P6SM VCSH BKN050=



000
FTUS41 KRNK 200523
TAFDAN
TAF
KDAN 200523Z 2006/2106 00000KT P6SM SCT250
     FM201500 22007G13KT P6SM SCT250
     FM210300 23005KT P6SM BKN250=



000
FTUS41 KRNK 200523
TAFROA
TAF
KROA 200523Z 2006/2106 32004KT P6SM SCT250
     FM201600 22008G15KT P6SM FEW050 BKN250
     FM202200 20006KT P6SM BKN080
     FM210300 21003KT P6SM OVC100=



000
FTUS41 KRNK 200523
TAFLWB
TAF
KLWB 200523Z 2006/2106 00000KT P6SM SCT250
     FM201600 24006KT P6SM SCT050 BKN150
     FM202200 VRB03KT P6SM BKN070
     FM210200 00000KT P6SM OVC050=



000
FTUS41 KRNK 200523
TAFLYH
TAF
KLYH 200523Z 2006/2106 00000KT P6SM SCT250
     FM201500 21007G14KT P6SM FEW050 BKN250
     FM202200 VRB03KT P6SM BKN120
     FM210400 22003KT P6SM OVC120=



000
FTUS41 KRNK 200523
TAFBLF
TAF
KBLF 200523Z 2006/2106 21003KT P6SM SCT200
     FM201400 23008G14KT P6SM SCT050 BKN150
     FM202300 25006KT P6SM VCSH BKN050=



000
FTUS41 KRNK 200523
TAFLYH
TAF
KLYH 200523Z 2006/2106 00000KT P6SM SCT250
     FM201500 21007G14KT P6SM FEW050 BKN250
     FM202200 VRB03KT P6SM BKN120
     FM210400 22003KT P6SM OVC120=



000
FTUS41 KRNK 200523
TAFLYH
TAF
KLYH 200523Z 2006/2106 00000KT P6SM SCT250
     FM201500 21007G14KT P6SM FEW050 BKN250
     FM202200 VRB03KT P6SM BKN120
     FM210400 22003KT P6SM OVC120=



000
FTUS41 KRNK 200523
TAFBLF
TAF
KBLF 200523Z 2006/2106 21003KT P6SM SCT200
     FM201400 23008G14KT P6SM SCT050 BKN150
     FM202300 25006KT P6SM VCSH BKN050=



000
FTUS41 KRNK 200523
TAFDAN
TAF
KDAN 200523Z 2006/2106 00000KT P6SM SCT250
     FM201500 22007G13KT P6SM SCT250
     FM210300 23005KT P6SM BKN250=



000
FTUS41 KRNK 200523
TAFROA
TAF
KROA 200523Z 2006/2106 32004KT P6SM SCT250
     FM201600 22008G15KT P6SM FEW050 BKN250
     FM202200 20006KT P6SM BKN080
     FM210300 21003KT P6SM OVC100=



000
FTUS41 KRNK 200523
TAFLWB
TAF
KLWB 200523Z 2006/2106 00000KT P6SM SCT250
     FM201600 24006KT P6SM SCT050 BKN150
     FM202200 VRB03KT P6SM BKN070
     FM210200 00000KT P6SM OVC050=



000
FTUS41 KRNK 200523
TAFROA
TAF
KROA 200523Z 2006/2106 32004KT P6SM SCT250
     FM201600 22008G15KT P6SM FEW050 BKN250
     FM202200 20006KT P6SM BKN080
     FM210300 21003KT P6SM OVC100=



000
FTUS41 KRNK 200523
TAFDAN
TAF
KDAN 200523Z 2006/2106 00000KT P6SM SCT250
     FM201500 22007G13KT P6SM SCT250
     FM210300 23005KT P6SM BKN250=



000
FTUS41 KRNK 192327
TAFLYH
TAF
KLYH 192327Z 2000/2024 00000KT P6SM SCT250
     FM201500 21007G14KT P6SM FEW050 BKN250
     FM202200 VRB03KT P6SM BKN120=



000
FTUS41 KRNK 192327
TAFROA
TAF
KROA 192327Z 2000/2024 32004KT P6SM SCT250
     FM201600 22008G15KT P6SM FEW050 BKN250
     FM202200 20006KT P6SM BKN080=



000
FTUS41 KRNK 192327
TAFDAN
TAF
KDAN 192327Z 2000/2024 00000KT P6SM FEW250
     FM201500 22007G13KT P6SM SCT250=



000
FTUS41 KRNK 192327
TAFBLF
TAF
KBLF 192327Z 2000/2024 30005KT P6SM FEW250
     FM200400 21003KT P6SM SCT200
     FM201400 23008G14KT P6SM SCT050 BKN150
     FM202100 25006KT P6SM VCSH BKN050=



000
FTUS41 KRNK 192327
TAFLWB
TAF
KLWB 192327Z 2000/2024 00000KT P6SM SCT250
     FM201600 24006KT P6SM SCT050 BKN150
     FM202200 VRB03KT P6SM BKN070=



000
FTUS41 KRNK 192327
TAFLWB
TAF
KLWB 192327Z 2000/2024 00000KT P6SM SCT250
     FM201600 24006KT P6SM SCT050 BKN150
     FM202200 VRB03KT P6SM BKN070=



000
FTUS41 KRNK 192327
TAFLYH
TAF
KLYH 192327Z 2000/2024 00000KT P6SM SCT250
     FM201500 21007G14KT P6SM FEW050 BKN250
     FM202200 VRB03KT P6SM BKN120=



000
FTUS41 KRNK 192327
TAFDAN
TAF
KDAN 192327Z 2000/2024 00000KT P6SM FEW250
     FM201500 22007G13KT P6SM SCT250=



000
FTUS41 KRNK 192327
TAFBLF
TAF
KBLF 192327Z 2000/2024 30005KT P6SM FEW250
     FM200400 21003KT P6SM SCT200
     FM201400 23008G14KT P6SM SCT050 BKN150
     FM202100 25006KT P6SM VCSH BKN050=



000
FTUS41 KRNK 192327
TAFROA
TAF
KROA 192327Z 2000/2024 32004KT P6SM SCT250
     FM201600 22008G15KT P6SM FEW050 BKN250
     FM202200 20006KT P6SM BKN080=



000
FTUS41 KRNK 192327
TAFBLF
TAF
KBLF 192327Z 2000/2024 30005KT P6SM FEW250
     FM200400 21003KT P6SM SCT200
     FM201400 23008G14KT P6SM SCT050 BKN150
     FM202100 25006KT P6SM VCSH BKN050=



000
FTUS41 KRNK 192327
TAFLWB
TAF
KLWB 192327Z 2000/2024 00000KT P6SM SCT250
     FM201600 24006KT P6SM SCT050 BKN150
     FM202200 VRB03KT P6SM BKN070=



000
FTUS41 KRNK 192327
TAFROA
TAF
KROA 192327Z 2000/2024 32004KT P6SM SCT250
     FM201600 22008G15KT P6SM FEW050 BKN250
     FM202200 20006KT P6SM BKN080=



000
FTUS41 KRNK 192327
TAFDAN
TAF
KDAN 192327Z 2000/2024 00000KT P6SM FEW250
     FM201500 22007G13KT P6SM SCT250=



000
FTUS41 KRNK 192327
TAFLYH
TAF
KLYH 192327Z 2000/2024 00000KT P6SM SCT250
     FM201500 21007G14KT P6SM FEW050 BKN250
     FM202200 VRB03KT P6SM BKN120=



000
FTUS41 KRNK 192327
TAFBLF
TAF
KBLF 192327Z 2000/2024 30005KT P6SM FEW250
     FM200400 21003KT P6SM SCT200
     FM201400 23008G14KT P6SM SCT050 BKN150
     FM202100 25006KT P6SM VCSH BKN050=



000
FTUS41 KRNK 192327
TAFLWB
TAF
KLWB 192327Z 2000/2024 00000KT P6SM SCT250
     FM201600 24006KT P6SM SCT050 BKN150
     FM202200 VRB03KT P6SM BKN070=



000
FTUS41 KRNK 192327
TAFROA
TAF
KROA 192327Z 2000/2024 32004KT P6SM SCT250
     FM201600 22008G15KT P6SM FEW050 BKN250
     FM202200 20006KT P6SM BKN080=



000
FTUS41 KRNK 192327
TAFLYH
TAF
KLYH 192327Z 2000/2024 00000KT P6SM SCT250
     FM201500 21007G14KT P6SM FEW050 BKN250
     FM202200 VRB03KT P6SM BKN120=



000
FTUS41 KRNK 192327
TAFDAN
TAF
KDAN 192327Z 2000/2024 00000KT P6SM FEW250
     FM201500 22007G13KT P6SM SCT250=



000
FTUS41 KRNK 191723
TAFDAN
TAF
KDAN 191723Z 1918/2018 32010G18KT P6SM SKC
     FM192100 32008KT P6SM SKC
     FM192300 00000KT P6SM SKC
     FM201500 22007KT P6SM SCT250=



000
FTUS41 KRNK 191723
TAFROA
TAF
KROA 191723Z 1918/2018 31012G22KT P6SM FEW050
     FM192200 27008KT P6SM SKC
     FM192300 00000KT P6SM SKC
     FM201600 19006KT P6SM FEW050 BKN250=



000
FTUS41 KRNK 191723
TAFLYH
TAF
KLYH 191723Z 1918/2018 30008KT P6SM SKC
     FM192200 00000KT P6SM SKC
     FM201500 20007KT P6SM FEW050 BKN250=



000
FTUS41 KRNK 191723
TAFBLF
TAF
KBLF 191723Z 1918/2018 32008KT P6SM BKN025
     FM191900 31007KT P6SM SCT030
     FM192300 00000KT P6SM SCT250
     FM201300 23008KT P6SM SCT040 BKN250=



000
FTUS41 KRNK 191723
TAFLWB
TAF
KLWB 191723Z 1918/2018 29007G15KT P6SM SCT035
     FM192100 30006KT P6SM FEW030
     FM192300 00000KT P6SM SKC
     FM201600 24004KT P6SM FEW040 BKN250=



000
FTUS41 KRNK 191723
TAFLWB
TAF
KLWB 191723Z 1918/2018 29007G15KT P6SM SCT035
     FM192100 30006KT P6SM FEW030
     FM192300 00000KT P6SM SKC
     FM201600 24004KT P6SM FEW040 BKN250=



000
FTUS41 KRNK 191723
TAFBLF
TAF
KBLF 191723Z 1918/2018 32008KT P6SM BKN025
     FM191900 31007KT P6SM SCT030
     FM192300 00000KT P6SM SCT250
     FM201300 23008KT P6SM SCT040 BKN250=



000
FTUS41 KRNK 191723
TAFROA
TAF
KROA 191723Z 1918/2018 31012G22KT P6SM FEW050
     FM192200 27008KT P6SM SKC
     FM192300 00000KT P6SM SKC
     FM201600 19006KT P6SM FEW050 BKN250=



000
FTUS41 KRNK 191723
TAFDAN
TAF
KDAN 191723Z 1918/2018 32010G18KT P6SM SKC
     FM192100 32008KT P6SM SKC
     FM192300 00000KT P6SM SKC
     FM201500 22007KT P6SM SCT250=



000
FTUS41 KRNK 191723
TAFLYH
TAF
KLYH 191723Z 1918/2018 30008KT P6SM SKC
     FM192200 00000KT P6SM SKC
     FM201500 20007KT P6SM FEW050 BKN250=



000
FTUS41 KRNK 191647 AAB
TAFBLF
TAF AMD
KBLF 191647Z 1917/2012 32008KT P6SM BKN025
     FM191900 31008KT P6SM SCT030
     FM192200 24006KT P6SM SKC=



000
FTUS41 KRNK 191647 AAB
TAFBLF
TAF AMD
KBLF 191647Z 1917/2012 32008KT P6SM BKN025
     FM191900 31008KT P6SM SCT030
     FM192200 24006KT P6SM SKC=



000
FTUS41 KRNK 191647 AAB
TAFDAN
TAF AMD
KDAN 191647Z 1917/2012 32010G18KT P6SM SKC
     FM192100 32008KT P6SM SKC
     FM192300 00000KT P6SM SKC=



000
FTUS41 KRNK 191647 AAB
TAFDAN
TAF AMD
KDAN 191647Z 1917/2012 32010G18KT P6SM SKC
     FM192100 32008KT P6SM SKC
     FM192300 00000KT P6SM SKC=



000
FTUS41 KRNK 191646 AAB
TAFLWB
TAF AMD
KLWB 191646Z 1917/2012 29007KT P6SM SCT030
     FM192200 00000KT P6SM SKC=



000
FTUS41 KRNK 191646 AAB
TAFLWB
TAF AMD
KLWB 191646Z 1917/2012 29007KT P6SM SCT030
     FM192200 00000KT P6SM SKC=



000
FTUS41 KRNK 191424 AAA
TAFROA
TAF AMD
KROA 191424Z 1914/2012 28009KT P6SM SCT040
     FM191600 31012G22KT P6SM FEW040
     FM192300 27006KT P6SM SKC=



000
FTUS41 KRNK 191424 AAA
TAFROA
TAF AMD
KROA 191424Z 1914/2012 28009KT P6SM SCT040
     FM191600 31012G22KT P6SM FEW040
     FM192300 27006KT P6SM SKC=



000
FTUS41 KRNK 191422 AAA
TAFLWB
TAF AMD
KLWB 191422Z 1914/2012 33010G20KT P6SM SCT028 BKN035
      TEMPO 1914/1916 BKN028
     FM191700 30008G16KT P6SM FEW035
     FM192200 00000KT P6SM SKC=



000
FTUS41 KRNK 191422 AAA
TAFLWB
TAF AMD
KLWB 191422Z 1914/2012 33010G20KT P6SM SCT028 BKN035
      TEMPO 1914/1916 BKN028
     FM191700 30008G16KT P6SM FEW035
     FM192200 00000KT P6SM SKC=



000
FTUS41 KRNK 191321 AAA
TAFBLF
TAF AMD
KBLF 191321Z 1913/2012 30005KT P6SM SCT015 OVC025
     FM191600 30009G17KT P6SM SCT015 OVC025
     FM191900 30010G18KT P6SM SCT030
     FM192200 24006KT P6SM SKC=



000
FTUS41 KRNK 191321 AAA
TAFBLF
TAF AMD
KBLF 191321Z 1913/2012 30005KT P6SM SCT015 OVC025
     FM191600 30009G17KT P6SM SCT015 OVC025
     FM191900 30010G18KT P6SM SCT030
     FM192200 24006KT P6SM SKC=



000
FTUS41 KRNK 191320 AAA
TAFDAN
TAF AMD
KDAN 191320Z 1913/2012 30004KT P6SM SKC
     FM191600 32008G16KT P6SM SKC
     FM192300 00000KT P6SM SKC=



000
FTUS41 KRNK 191320 AAA
TAFDAN
TAF AMD
KDAN 191320Z 1913/2012 30004KT P6SM SKC
     FM191600 32008G16KT P6SM SKC
     FM192300 00000KT P6SM SKC=



000
FTUS41 KRNK 191129
TAFLWB
TAF
KLWB 191129Z 1912/2012 32007KT P6SM OVC025
     FM191500 31008G16KT P6SM BKN030
     FM191700 30008G16KT P6SM FEW035
     FM192200 00000KT P6SM SKC=



000
FTUS41 KRNK 191129
TAFBLF
TAF
KBLF 191129Z 1912/2012 30009G16KT P6SM BKN010 OVC020
     FM191400 30009G17KT P6SM SCT015 OVC025
     FM191700 30010G18KT P6SM SCT030
     FM192200 24006KT P6SM SKC=



000
FTUS41 KRNK 191129
TAFLYH
TAF
KLYH 191129Z 1912/2012 31005KT P6SM FEW045
     FM191400 31007KT P6SM SKC
     FM192300 00000KT P6SM SKC=



000
FTUS41 KRNK 191129
TAFDAN
TAF
KDAN 191129Z 1912/2012 32008G16KT P6SM SKC
     FM192300 00000KT P6SM SKC=



000
FTUS41 KRNK 191129
TAFROA
TAF
KROA 191129Z 1912/2012 30010G16KT P6SM BKN035
     FM191400 31012G22KT P6SM SCT040
     FM192300 27006KT P6SM SKC=



000
FTUS41 KRNK 191129
TAFLYH
TAF
KLYH 191129Z 1912/2012 31005KT P6SM FEW045
     FM191400 31007KT P6SM SKC
     FM192300 00000KT P6SM SKC=



000
FTUS41 KRNK 191129
TAFBLF
TAF
KBLF 191129Z 1912/2012 30009G16KT P6SM BKN010 OVC020
     FM191400 30009G17KT P6SM SCT015 OVC025
     FM191700 30010G18KT P6SM SCT030
     FM192200 24006KT P6SM SKC=



000
FTUS41 KRNK 191129
TAFROA
TAF
KROA 191129Z 1912/2012 30010G16KT P6SM BKN035
     FM191400 31012G22KT P6SM SCT040
     FM192300 27006KT P6SM SKC=



000
FTUS41 KRNK 191129
TAFLWB
TAF
KLWB 191129Z 1912/2012 32007KT P6SM OVC025
     FM191500 31008G16KT P6SM BKN030
     FM191700 30008G16KT P6SM FEW035
     FM192200 00000KT P6SM SKC=



000
FTUS41 KRNK 191129
TAFDAN
TAF
KDAN 191129Z 1912/2012 32008G16KT P6SM SKC
     FM192300 00000KT P6SM SKC=



000
FTUS41 KRNK 190946 AAC
TAFLWB
TAF AMD
KLWB 190946Z 1910/2006 32007KT P6SM OVC020
     FM191300 31006KT P6SM OVC025
     FM191600 31006KT P6SM SCT040
     FM200300 00000KT P6SM SKC=



000
FTUS41 KRNK 190946 AAC
TAFLWB
TAF AMD
KLWB 190946Z 1910/2006 32007KT P6SM OVC020
     FM191300 31006KT P6SM OVC025
     FM191600 31006KT P6SM SCT040
     FM200300 00000KT P6SM SKC=



000
FTUS41 KRNK 190930 AAC
TAFBLF
TAF AMD
KBLF 190930Z 1910/2006 30009KT P6SM BKN014 OVC022
     FM191400 30007KT P6SM BKN025
     FM191600 31006KT P6SM SCT040
     FM200200 21005KT P6SM SCT100=



000
FTUS41 KRNK 190924 AAB
TAFLWB
TAF AMD
KLWB 190924Z 1909/2006 34004KT P6SM BKN018 OVC023
     FM191300 31006KT P6SM OVC025
     FM191600 31006KT P6SM SCT040
     FM200300 00000KT P6SM SKC=



000
FTUS41 KRNK 190855 AAB
TAFBLF
TAF AMD
KBLF 190855Z 1909/2006 30008KT P6SM SCT007 OVC020
     FM191400 30007KT P6SM BKN025
     FM191600 31006KT P6SM SCT040
     FM200200 21005KT P6SM SCT100=



000
FTUS41 KRNK 190855 AAB
TAFBLF
TAF AMD
KBLF 190855Z 1909/2006 30008KT P6SM SCT007 OVC020
     FM191400 30007KT P6SM BKN025
     FM191600 31006KT P6SM SCT040
     FM200200 21005KT P6SM SCT100=



000
FTUS41 KRNK 190849 AAA
TAFLWB
TAF AMD
KLWB 190849Z 1909/2006 33008KT P6SM SCT015 OVC023
     FM191300 31006KT P6SM OVC025
     FM191600 31006KT P6SM SCT040
     FM200300 00000KT P6SM SKC=



000
FTUS41 KRNK 190849 AAA
TAFLWB
TAF AMD
KLWB 190849Z 1909/2006 33008KT P6SM SCT015 OVC023
     FM191300 31006KT P6SM OVC025
     FM191600 31006KT P6SM SCT040
     FM200300 00000KT P6SM SKC=



000
FTUS41 KRNK 190749 AAA
TAFBLF
TAF AMD
KBLF 190749Z 1908/2006 VRB05KT P6SM BKN007 OVC013
     FM190900 31010G20KT P6SM SCT008 OVC015
     FM191400 30007KT P6SM BKN015
     FM191600 31006KT P6SM SCT040
     FM200200 21005KT P6SM SCT100=



000
FTUS41 KRNK 190749 AAA
TAFBLF
TAF AMD
KBLF 190749Z 1908/2006 VRB05KT P6SM BKN007 OVC013
     FM190900 31010G20KT P6SM SCT008 OVC015
     FM191400 30007KT P6SM BKN015
     FM191600 31006KT P6SM SCT040
     FM200200 21005KT P6SM SCT100=



000
FTUS41 KRNK 190601 CCA
TAFROA
TAF COR
KROA 190601Z 1906/2006 31014G24KT P6SM VCSH OVC040
     FM190900 31012KT P6SM SCT040
     FM191400 32012G22KT P6SM SKC
     FM200200 30005KT P6SM SKC=



000
FTUS41 KRNK 190601 CCA
TAFROA
TAF COR
KROA 190601Z 1906/2006 31014G24KT P6SM VCSH OVC040
     FM190900 31012KT P6SM SCT040
     FM191400 32012G22KT P6SM SKC
     FM200200 30005KT P6SM SKC=



000
FTUS41 KRNK 190557 CCA
TAFBLF
TAF COR
KBLF 190557Z 1906/2006 31007KT P6SM -RA OVC015
     FM190900 31010G20KT P6SM SCT008 OVC015
     FM191400 30007KT P6SM BKN015
     FM191600 31006KT P6SM SCT040
     FM200200 21005KT P6SM SCT100=



000
FTUS41 KRNK 190557 CCA
TAFBLF
TAF COR
KBLF 190557Z 1906/2006 31007KT P6SM -RA OVC015
     FM190900 31010G20KT P6SM SCT008 OVC015
     FM191400 30007KT P6SM BKN015
     FM191600 31006KT P6SM SCT040
     FM200200 21005KT P6SM SCT100=



000
FTUS41 KRNK 190556 CCA
TAFLWB
TAF COR
KLWB 190556Z 1906/2006 00000KT P6SM -RA BKN024 OVC050
     FM190800 VRB04KT P6SM OVC015
     FM191300 31006KT P6SM OVC025
     FM191600 31006KT P6SM SCT040
     FM200300 00000KT P6SM SKC=



000
FTUS41 KRNK 190556 CCA
TAFLWB
TAF COR
KLWB 190556Z 1906/2006 00000KT P6SM -RA BKN024 OVC050
     FM190800 VRB04KT P6SM OVC015
     FM191300 31006KT P6SM OVC025
     FM191600 31006KT P6SM SCT040
     FM200300 00000KT P6SM SKC=



000
FTUS41 KRNK 190524
TAFDAN
TAF
KDAN 190524Z 1906/2006 29007KT P6SM BKN050
     FM191000 30007KT P6SM SCT050
     FM200200 00000KT P6SM SKC=



000
FTUS41 KRNK 190524
TAFDAN
TAF
KDAN 190524Z 1906/2006 29007KT P6SM BKN050
     FM191000 30007KT P6SM SCT050
     FM200200 00000KT P6SM SKC=



000
FTUS41 KRNK 190524
TAFLWB
TAF
KLWB 190524Z 1906/2006 31005KT P6SM -RA SCT024 OVC050
     FM190800 VRB04KT P6SM OVC015
     FM191300 31006KT P6SM OVC025
     FM191600 31006KT P6SM SCT040
     FM200300 00000KT P6SM SKC=



000
FTUS41 KRNK 190524
TAFBLF
TAF
KBLF 190524Z 1906/2006 31007KT P6SM -RA OVC005
     FM190900 31010G20KT P6SM SCT008 OVC015
     FM191400 30007KT P6SM BKN015
     FM191600 31006KT P6SM SCT040
     FM200200 21005KT P6SM SCT100=



000
FTUS41 KRNK 190524
TAFROA
TAF
KROA 190524Z 1906/2006 31011KT P6SM VCSH OVC040
     FM190900 31012KT P6SM SCT040
     FM191400 32012G22KT P6SM SKC
     FM200200 30005KT P6SM SKC=



000
FTUS41 KRNK 190524
TAFLYH
TAF
KLYH 190524Z 1906/2006 29008KT P6SM OVC040
     FM190900 31006KT P6SM SCT050
     FM200200 00000KT P6SM SKC=



000
FTUS41 KRNK 190524
TAFLWB
TAF
KLWB 190524Z 1906/2006 31005KT P6SM -RA SCT024 OVC050
     FM190800 VRB04KT P6SM OVC015
     FM191300 31006KT P6SM OVC025
     FM191600 31006KT P6SM SCT040
     FM200300 00000KT P6SM SKC=



000
FTUS41 KRNK 190524
TAFROA
TAF
KROA 190524Z 1906/2006 31011KT P6SM VCSH OVC040
     FM190900 31012KT P6SM SCT040
     FM191400 32012G22KT P6SM SKC
     FM200200 30005KT P6SM SKC=



000
FTUS41 KRNK 190524
TAFBLF
TAF
KBLF 190524Z 1906/2006 31007KT P6SM -RA OVC005
     FM190900 31010G20KT P6SM SCT008 OVC015
     FM191400 30007KT P6SM BKN015
     FM191600 31006KT P6SM SCT040
     FM200200 21005KT P6SM SCT100=



000
FTUS41 KRNK 190524
TAFLYH
TAF
KLYH 190524Z 1906/2006 29008KT P6SM OVC040
     FM190900 31006KT P6SM SCT050
     FM200200 00000KT P6SM SKC=



000
FTUS41 KRNK 190239 AAB
TAFLWB
TAF AMD
KLWB 190239Z 1903/1924 33005KT P6SM -RA BKN020 OVC030
     FM190800 31006KT P6SM OVC015
     FM191300 31006KT P6SM OVC025
     FM191600 31006KT P6SM SCT040=



000
FTUS41 KRNK 190239 AAB
TAFLWB
TAF AMD
KLWB 190239Z 1903/1924 33005KT P6SM -RA BKN020 OVC030
     FM190800 31006KT P6SM OVC015
     FM191300 31006KT P6SM OVC025
     FM191600 31006KT P6SM SCT040=



000
FTUS41 KRNK 190239 AAB
TAFLWB
TAF AMD
KLWB 190239Z 1903/1924 33005KT P6SM -RA BKN020 OVC030
     FM190800 31006KT P6SM OVC015
     FM191300 31006KT P6SM OVC025
     FM191600 31006KT P6SM SCT040=



000
FTUS41 KRNK 190239 AAB
TAFLWB
TAF AMD
KLWB 190239Z 1903/1924 33005KT P6SM -RA BKN020 OVC030
     FM190800 31006KT P6SM OVC015
     FM191300 31006KT P6SM OVC025
     FM191600 31006KT P6SM SCT040=



000
FTUS41 KRNK 190157 AAA
TAFLWB
TAF AMD
KLWB 190157Z 1902/1924 33005KT P6SM -RA SCT025 OVC035
     FM190800 31006KT P6SM OVC015
     FM191300 31006KT P6SM OVC025
     FM191600 31006KT P6SM SCT040=



000
FTUS41 KRNK 190157 AAA
TAFLWB
TAF AMD
KLWB 190157Z 1902/1924 33005KT P6SM -RA SCT025 OVC035
     FM190800 31006KT P6SM OVC015
     FM191300 31006KT P6SM OVC025
     FM191600 31006KT P6SM SCT040=



000
FTUS41 KRNK 182324
TAFROA
TAF
KROA 182324Z 1900/1924 32008KT P6SM VCSH OVC045
     FM190400 31011G21KT P6SM OVC040
     FM190900 31012KT P6SM SCT040
     FM191400 32012G22KT P6SM SKC=



000
FTUS41 KRNK 182324
TAFDAN
TAF
KDAN 182324Z 1900/1924 29007KT P6SM BKN050
     FM190600 30007KT P6SM SCT050=



000
FTUS41 KRNK 182324
TAFLYH
TAF
KLYH 182324Z 1900/1924 29008KT P6SM BKN050
     FM190600 31006KT P6SM SCT050=



000
FTUS41 KRNK 182324
TAFBLF
TAF
KBLF 182324Z 1900/1924 30010KT P6SM -RA OVC010
      TEMPO 1900/1904 5SM -RA BR OVC008
     FM190600 31010G20KT P6SM OVC015
     FM191400 30007KT P6SM BKN015
     FM191600 31006KT P6SM SCT040=



000
FTUS41 KRNK 182324
TAFLWB
TAF
KLWB 182324Z 1900/1924 31005KT P6SM -RA OVC025
     FM190800 31006KT P6SM OVC015
     FM191300 31006KT P6SM OVC025
     FM191600 31006KT P6SM SCT040=



000
FTUS41 KRNK 182324
TAFBLF
TAF
KBLF 182324Z 1900/1924 30010KT P6SM -RA OVC010
      TEMPO 1900/1904 5SM -RA BR OVC008
     FM190600 31010G20KT P6SM OVC015
     FM191400 30007KT P6SM BKN015
     FM191600 31006KT P6SM SCT040=



000
FTUS41 KRNK 182324
TAFDAN
TAF
KDAN 182324Z 1900/1924 29007KT P6SM BKN050
     FM190600 30007KT P6SM SCT050=



000
FTUS41 KRNK 182324
TAFROA
TAF
KROA 182324Z 1900/1924 32008KT P6SM VCSH OVC045
     FM190400 31011G21KT P6SM OVC040
     FM190900 31012KT P6SM SCT040
     FM191400 32012G22KT P6SM SKC=



000
FTUS41 KRNK 182324
TAFLYH
TAF
KLYH 182324Z 1900/1924 29008KT P6SM BKN050
     FM190600 31006KT P6SM SCT050=



000
FTUS41 KRNK 182324
TAFLWB
TAF
KLWB 182324Z 1900/1924 31005KT P6SM -RA OVC025
     FM190800 31006KT P6SM OVC015
     FM191300 31006KT P6SM OVC025
     FM191600 31006KT P6SM SCT040=



000
FTUS41 KRNK 182156 AAA
TAFBLF
TAF AMD
KBLF 182156Z 1822/1918 29010KT P6SM -RA BKN010
     FM182300 30012G22KT P6SM -RA OVC008
     FM190700 31008G16KT P6SM OVC018
     FM191200 30006KT P6SM OVC015
     FM191400 30007KT P6SM BKN250=



000
FTUS41 KRNK 182156 AAA
TAFBLF
TAF AMD
KBLF 182156Z 1822/1918 29010KT P6SM -RA BKN010
     FM182300 30012G22KT P6SM -RA OVC008
     FM190700 31008G16KT P6SM OVC018
     FM191200 30006KT P6SM OVC015
     FM191400 30007KT P6SM BKN250=



    US Dept of Commerce
    National Oceanic and Atmospheric Administration
    National Weather Service
    1325 East West Highway
    Silver Spring, MD 20910
    Page Author: NWS Internet Services Team
Disclaimer
Information Quality
Credits
Glossary
Privacy Policy
Freedom of Information Act (FOIA)
About Us
Career Opportunities